createdAt,value
2018-10-11T00:00:48.701Z,23.33
2018-10-11T00:03:16.925Z,23.25
2018-10-11T00:05:44.384Z,23.95
2018-10-11T00:08:12.194Z,23.83
2018-10-11T00:10:39.668Z,23.90
2018-10-11T00:13:07.516Z,23.83
2018-10-11T00:15:35.021Z,24.45
2018-10-11T00:18:02.515Z,23.45
2018-10-11T00:20:30.006Z,24.00
2018-10-11T00:22:57.527Z,24.02
2018-10-11T00:25:25.694Z,25.20
2018-10-11T00:27:53.316Z,23.30
2018-10-11T00:30:20.871Z,24.52
2018-10-11T00:32:48.323Z,25.05
2018-10-11T00:35:15.848Z,24.10
2018-10-11T00:37:43.839Z,24.40
2018-10-11T00:40:11.760Z,25.05
2018-10-11T00:42:40.081Z,25.17
2018-10-11T00:45:07.623Z,25.52
2018-10-11T00:47:35.664Z,25.27
2018-10-11T00:50:03.188Z,24.92
2018-10-11T00:52:31.031Z,24.40
2018-10-11T00:54:58.885Z,25.92
2018-10-11T00:57:26.721Z,25.25
2018-10-11T00:59:54.494Z,24.90
2018-10-11T01:02:22.013Z,24.45
2018-10-11T01:04:49.712Z,25.93
2018-10-11T01:07:17.565Z,25.35
2018-10-11T01:09:45.344Z,25.80
2018-10-11T01:12:13.109Z,24.47
2018-10-11T01:14:40.626Z,26.50
2018-10-11T01:17:08.432Z,25.73
2018-10-11T01:19:35.972Z,26.35
2018-10-11T01:22:03.437Z,26.30
2018-10-11T01:24:30.958Z,25.82
2018-10-11T01:26:58.419Z,25.48
2018-10-11T01:29:25.990Z,26.37
2018-10-11T01:31:53.493Z,27.00
2018-10-11T01:34:21.561Z,26.95
2018-10-11T01:36:49.433Z,26.73
2018-10-11T01:39:17.509Z,27.50
2018-10-11T01:41:45.045Z,26.80
2018-10-11T01:44:12.851Z,26.77
2018-10-11T01:46:40.579Z,28.10
2018-10-11T01:49:08.052Z,28.30
2018-10-11T01:51:35.556Z,27.77
2018-10-11T01:54:03.044Z,27.60
2018-10-11T01:56:31.251Z,27.70
2018-10-11T01:58:59.313Z,27.10
2018-10-11T02:01:26.846Z,28.05
2018-10-11T02:03:54.747Z,27.40
2018-10-11T02:06:22.203Z,27.85
2018-10-11T02:08:49.761Z,28.15
2018-10-11T02:11:17.568Z,28.12
2018-10-11T02:13:45.064Z,27.50
2018-10-11T02:16:12.685Z,28.60
2018-10-11T02:18:40.839Z,28.97
2018-10-11T02:21:08.425Z,28.00
2018-10-11T02:23:35.977Z,29.05
2018-10-11T02:26:03.538Z,28.80
2018-10-11T02:28:31.569Z,29.00
2018-10-11T02:30:59.335Z,28.90
2018-10-11T02:33:27.152Z,29.33
2018-10-11T02:35:55.164Z,28.40
2018-10-11T02:38:23.245Z,29.30
2018-10-11T02:40:51.049Z,29.70
2018-10-11T02:43:18.575Z,29.50
2018-10-11T02:45:46.329Z,28.65
2018-10-11T02:48:13.849Z,29.35
2018-10-11T02:50:41.366Z,29.80
2018-10-11T02:53:08.868Z,28.80
2018-10-11T02:55:36.443Z,29.00
2018-10-11T02:58:09.802Z,28.67
2018-10-11T03:00:37.739Z,28.20
2018-10-11T03:03:08.057Z,28.10
2018-10-11T03:05:36.676Z,28.57
2018-10-11T03:08:04.560Z,27.75
2018-10-11T03:10:32.377Z,28.55
2018-10-11T03:13:00.249Z,27.30
2018-10-11T03:15:27.837Z,28.00
2018-10-11T03:17:55.311Z,28.32
2018-10-11T03:20:23.034Z,27.50
2018-10-11T03:22:50.838Z,27.30
2018-10-11T03:25:18.365Z,28.02
2018-10-11T03:27:45.860Z,27.80
2018-10-11T03:30:13.829Z,28.40
2018-10-11T03:32:41.327Z,28.50
2018-10-11T03:35:09.285Z,27.58
2018-10-11T03:37:36.752Z,27.80
2018-10-11T03:40:04.231Z,29.10
2018-10-11T03:42:31.775Z,28.20
2018-10-11T03:45:00.142Z,28.95
2018-10-11T03:47:27.588Z,27.82
2018-10-11T03:49:55.384Z,28.15
2018-10-11T03:52:22.942Z,27.95
2018-10-11T03:54:50.457Z,28.05
2018-10-11T03:57:18.308Z,27.93
2018-10-11T03:59:46.143Z,27.67
2018-10-11T04:02:13.621Z,27.62
2018-10-11T04:04:41.356Z,27.80
2018-10-11T04:07:09.136Z,28.02
2018-10-11T04:09:36.644Z,27.67
2018-10-11T04:12:04.452Z,27.25
2018-10-11T04:14:31.915Z,27.50
2018-10-11T04:16:59.781Z,27.80
2018-10-11T04:19:27.543Z,27.90
2018-10-11T04:21:55.036Z,27.22
2018-10-11T04:24:22.507Z,27.22
2018-10-11T04:26:50.005Z,28.00
2018-10-11T04:29:17.845Z,28.70
2018-10-11T04:31:45.312Z,26.97
2018-10-11T04:34:13.197Z,27.05
2018-10-11T04:36:41.001Z,26.95
2018-10-11T04:39:09.200Z,27.48
2018-10-11T04:41:37.058Z,28.12
2018-10-11T04:44:04.564Z,27.25
2018-10-11T04:46:32.105Z,27.13
2018-10-11T04:48:59.605Z,27.17
2018-10-11T04:51:27.163Z,26.87
2018-10-11T04:53:55.229Z,26.95
2018-10-11T04:56:23.579Z,27.20
2018-10-11T04:58:51.061Z,27.00
2018-10-11T05:01:18.869Z,26.23
2018-10-11T05:03:46.393Z,26.95
2018-10-11T05:06:14.889Z,27.10
2018-10-11T05:08:42.659Z,27.30
2018-10-11T05:11:10.624Z,27.27
2018-10-11T05:13:41.885Z,27.30
2018-10-11T05:16:09.308Z,28.00
2018-10-11T05:18:38.713Z,27.20
2018-10-11T05:21:06.496Z,27.35
2018-10-11T05:23:33.993Z,27.00
2018-10-11T05:26:01.813Z,27.80
2018-10-11T05:28:29.564Z,28.35
2018-10-11T05:30:57.342Z,27.90
2018-10-11T05:33:25.405Z,28.47
2018-10-11T05:35:53.478Z,28.80
2018-10-11T05:38:21.549Z,29.80
2018-10-11T05:40:49.616Z,28.95
2018-10-11T05:43:17.590Z,29.05
2018-10-11T05:45:52.421Z,28.20
2018-10-11T05:48:20.288Z,28.17
2018-10-11T05:50:48.218Z,27.10
2018-10-11T05:53:16.431Z,27.30
2018-10-11T05:55:44.740Z,27.73
2018-10-11T05:58:12.313Z,28.00
2018-10-11T06:00:39.806Z,27.10
2018-10-11T06:03:07.718Z,28.60
2018-10-11T06:05:35.217Z,27.40
2018-10-11T06:08:02.784Z,27.93
2018-10-11T06:10:31.437Z,27.37
2018-10-11T06:12:59.231Z,26.70
2018-10-11T06:15:27.033Z,27.07
2018-10-11T06:17:54.603Z,26.15
2018-10-11T06:20:22.764Z,26.68
2018-10-11T06:22:50.286Z,26.10
2018-10-11T06:27:58.561Z,26.27
2018-10-11T06:30:26.339Z,26.17
2018-10-11T06:32:54.392Z,24.83
2018-10-11T06:35:21.989Z,24.93
2018-10-11T06:37:50.128Z,24.55
2018-10-11T06:40:17.669Z,23.92
2018-10-11T06:42:45.368Z,24.27
2018-10-11T06:45:13.935Z,24.10
2018-10-11T06:47:42.253Z,23.50
2018-10-11T06:50:10.066Z,23.52
2018-10-11T06:52:38.272Z,24.03
2018-10-11T06:55:06.775Z,23.40
2018-10-11T06:57:34.758Z,24.52
2018-10-11T07:00:02.405Z,23.75
2018-10-11T07:02:29.985Z,24.18
2018-10-11T07:04:57.521Z,23.20
2018-10-11T07:07:25.045Z,22.27
2018-10-11T07:09:52.533Z,23.75
2018-10-11T07:12:20.371Z,23.15
2018-10-11T07:14:48.509Z,22.52
2018-10-11T07:17:16.412Z,22.40
2018-10-11T07:19:44.180Z,22.70
2018-10-11T07:22:12.080Z,21.10
2018-10-11T07:24:39.568Z,21.80
2018-10-11T07:27:07.396Z,20.68
2018-10-11T07:29:35.545Z,20.55
2018-10-11T07:32:03.456Z,19.90
2018-10-11T07:34:30.987Z,20.10
2018-10-11T07:36:58.529Z,19.40
2018-10-11T07:39:26.605Z,18.82
2018-10-11T07:41:54.430Z,19.40
2018-10-11T07:44:21.894Z,19.12
2018-10-11T07:46:49.468Z,19.17
2018-10-11T07:49:16.896Z,18.07
2018-10-11T07:51:44.360Z,19.02
2018-10-11T07:54:12.372Z,17.70
2018-10-11T07:56:39.857Z,17.53
2018-10-11T07:59:07.330Z,18.02
2018-10-11T08:01:34.887Z,17.62
2018-10-11T08:04:03.020Z,17.30
2018-10-11T08:06:30.484Z,17.25
2018-10-11T08:08:58.096Z,17.57
2018-10-11T08:11:26.338Z,17.70
2018-10-11T08:13:54.082Z,16.82
2018-10-11T08:16:21.785Z,16.17
2018-10-11T08:18:49.562Z,15.95
2018-10-11T08:21:17.237Z,16.10
2018-10-11T08:23:44.955Z,15.80
2018-10-11T08:26:13.528Z,15.40
2018-10-11T08:28:40.738Z,16.10
2018-10-11T08:31:08.938Z,15.93
2018-10-11T08:33:36.478Z,16.30
2018-10-11T08:36:04.593Z,16.30
2018-10-11T08:38:32.306Z,16.20
2018-10-11T08:41:00.010Z,15.80
2018-10-11T08:43:27.831Z,15.78
2018-10-11T08:45:55.516Z,14.80
2018-10-11T08:48:22.989Z,15.30
2018-10-11T08:50:51.745Z,14.73
2018-10-11T08:53:19.243Z,15.08
2018-10-11T08:55:47.101Z,14.60
2018-10-11T08:58:14.642Z,14.60
2018-10-11T09:00:42.327Z,14.80
2018-10-11T09:03:09.840Z,14.50
2018-10-11T09:05:37.444Z,15.10
2018-10-11T09:08:05.520Z,14.80
2018-10-11T09:10:38.344Z,15.10
2018-10-11T09:13:00.893Z,15.28
2018-10-11T09:15:28.764Z,14.60
2018-10-11T09:17:56.499Z,14.50
2018-10-11T09:20:23.984Z,13.93
2018-10-11T09:22:51.493Z,13.70
2018-10-11T09:25:19.271Z,14.95
2018-10-11T09:27:47.142Z,14.68
2018-10-11T09:30:14.944Z,14.90
2018-10-11T09:32:42.789Z,13.75
2018-10-11T09:35:10.261Z,13.90
2018-10-11T09:37:38.118Z,14.00
2018-10-11T09:40:05.788Z,14.33
2018-10-11T09:42:33.671Z,13.10
2018-10-11T09:45:01.502Z,13.90
2018-10-11T09:47:29.556Z,13.80
2018-10-11T09:49:57.357Z,13.83
2018-10-11T09:52:24.844Z,14.33
2018-10-11T09:54:52.633Z,13.65
2018-10-11T09:57:36.383Z,14.30
2018-10-11T10:00:08.868Z,13.60
2018-10-11T10:02:36.356Z,13.65
2018-10-11T10:05:04.359Z,13.72
2018-10-11T10:07:32.505Z,14.30
2018-10-11T10:10:00.105Z,13.85
2018-10-11T10:12:27.896Z,12.78
2018-10-11T10:14:55.377Z,13.00
2018-10-11T10:17:23.167Z,13.20
2018-10-11T10:19:50.677Z,13.00
2018-10-11T10:22:18.211Z,13.07
2018-10-11T10:24:45.727Z,13.03
2018-10-11T10:27:13.322Z,13.22
2018-10-11T10:29:40.748Z,12.55
2018-10-11T10:32:08.555Z,12.60
2018-10-11T10:34:36.340Z,12.43
2018-10-11T10:37:03.819Z,13.27
2018-10-11T10:39:31.563Z,11.75
2018-10-11T10:41:59.329Z,12.82
2018-10-11T10:44:26.786Z,12.20
2018-10-11T10:46:54.299Z,13.20
2018-10-11T10:49:21.792Z,12.90
2018-10-11T10:51:49.268Z,13.30
2018-10-11T10:54:22.233Z,12.00
2018-10-11T10:56:50.194Z,12.80
2018-10-11T10:59:17.660Z,12.47
2018-10-11T11:01:45.444Z,12.05
2018-10-11T11:04:13.004Z,12.00
2018-10-11T11:06:40.480Z,12.50
2018-10-11T11:09:10.064Z,12.47
2018-10-11T11:11:38.083Z,12.25
2018-10-11T11:14:05.905Z,12.20
2018-10-11T11:16:33.669Z,12.57
2018-10-11T11:19:01.172Z,11.83
2018-10-11T11:21:29.200Z,12.40
2018-10-11T11:23:56.963Z,12.33
2018-10-11T11:26:24.732Z,11.40
2018-10-11T11:28:52.813Z,11.85
2018-10-11T11:31:20.580Z,11.70
2018-10-11T11:33:48.352Z,10.80
2018-10-11T11:36:15.974Z,11.03
2018-10-11T11:38:43.464Z,10.75
2018-10-11T11:41:11.216Z,11.10
2018-10-11T11:43:38.758Z,10.90
2018-10-11T11:46:06.330Z,10.50
2018-10-11T11:48:33.788Z,10.98
2018-10-11T11:51:01.272Z,11.45
2018-10-11T11:53:29.319Z,11.40
2018-10-11T11:55:56.802Z,11.30
2018-10-11T11:58:24.560Z,10.30
2018-10-11T12:00:52.309Z,11.00
2018-10-11T12:03:20.076Z,10.98
2018-10-11T12:05:48.153Z,10.93
2018-10-11T12:08:16.222Z,10.68
2018-10-11T12:10:44.346Z,11.00
2018-10-11T12:13:12.719Z,10.53
2018-10-11T12:15:41.590Z,11.10
2018-10-11T12:18:09.376Z,10.55
2018-10-11T12:20:38.476Z,10.40
2018-10-11T12:23:07.314Z,10.43
2018-10-11T12:25:35.022Z,10.30
2018-10-11T12:28:02.487Z,10.40
2018-10-11T12:30:30.419Z,10.40
2018-10-11T12:32:58.479Z,10.58
2018-10-11T12:35:26.281Z,9.60
2018-10-11T12:37:54.313Z,9.70
2018-10-11T12:40:21.989Z,10.00
2018-10-11T12:42:49.287Z,9.78
2018-10-11T12:45:17.401Z,9.70
2018-10-11T12:47:44.848Z,9.70
2018-10-11T12:50:13.202Z,9.80
2018-10-11T12:52:40.840Z,9.58
2018-10-11T12:55:08.495Z,9.57
2018-10-11T12:57:36.211Z,9.35
2018-10-11T13:00:03.665Z,9.43
2018-10-11T13:02:31.284Z,9.97
2018-10-11T13:04:59.112Z,9.83
2018-10-11T13:07:26.869Z,9.80
2018-10-11T13:09:54.622Z,9.13
2018-10-11T13:12:22.432Z,9.60
2018-10-11T13:14:49.892Z,9.48
2018-10-11T13:17:17.863Z,9.63
2018-10-11T13:19:45.703Z,9.03
2018-10-11T13:22:13.162Z,9.50
2018-10-11T13:24:45.997Z,9.20
2018-10-11T13:27:08.723Z,9.40
2018-10-11T13:29:36.455Z,10.03
2018-10-11T13:32:03.921Z,9.50
2018-10-11T13:34:32.055Z,9.48
2018-10-11T13:36:59.492Z,9.63
2018-10-11T13:39:26.954Z,10.20
2018-10-11T13:41:54.791Z,9.10
2018-10-11T13:44:23.144Z,9.27
2018-10-11T13:46:51.213Z,9.63
2018-10-11T13:49:18.664Z,9.90
2018-10-11T13:51:46.159Z,9.10
2018-10-11T13:54:16.471Z,9.30
2018-10-11T13:56:43.925Z,9.20
2018-10-11T13:59:14.266Z,9.70
2018-10-11T14:01:39.210Z,9.80
2018-10-11T14:04:07.172Z,9.60
2018-10-11T14:06:35.310Z,9.63
2018-10-11T14:09:03.148Z,9.05
2018-10-11T14:11:30.634Z,9.40
2018-10-11T14:13:58.373Z,9.40
2018-10-11T14:16:25.854Z,9.15
2018-10-11T14:18:53.601Z,9.50
2018-10-11T14:21:21.340Z,9.20
2018-10-11T14:23:49.173Z,9.80
2018-10-11T14:26:16.896Z,8.73
2018-10-11T14:28:44.687Z,9.30
2018-10-11T14:31:12.380Z,9.33
2018-10-11T14:33:40.088Z,9.20
2018-10-11T14:36:07.879Z,9.75
2018-10-11T14:38:35.329Z,9.40
2018-10-11T14:41:02.819Z,9.33
2018-10-11T14:43:30.395Z,10.55
2018-10-11T14:45:57.816Z,10.25
2018-10-11T14:48:25.540Z,9.65
2018-10-11T14:50:53.064Z,9.65
2018-10-11T14:53:20.507Z,9.28
2018-10-11T14:55:48.224Z,9.40
2018-10-11T14:58:15.988Z,9.27
2018-10-11T15:00:43.580Z,9.40
2018-10-11T15:03:11.100Z,9.75
2018-10-11T15:05:38.876Z,10.33
2018-10-11T15:08:06.907Z,10.43
2018-10-11T15:10:34.487Z,11.60
2018-10-11T15:13:02.123Z,10.60
2018-10-11T15:15:29.636Z,9.40
2018-10-11T15:17:57.467Z,9.10
2018-10-11T15:20:24.910Z,9.10
2018-10-11T15:22:52.373Z,9.60
2018-10-11T15:25:20.084Z,10.40
2018-10-11T15:27:47.783Z,10.08
2018-10-11T15:30:15.271Z,10.78
2018-10-11T15:32:42.960Z,10.48
2018-10-11T15:35:10.434Z,9.97
2018-10-11T15:37:37.896Z,10.35
2018-10-11T15:40:05.736Z,10.13
2018-10-11T15:42:33.193Z,9.67
2018-10-11T15:45:01.085Z,9.45
2018-10-11T15:47:28.565Z,9.20
2018-10-11T15:49:56.325Z,9.50
2018-10-11T15:52:23.833Z,9.40
2018-10-11T15:54:51.323Z,9.80
2018-10-11T15:57:18.804Z,10.43
2018-10-11T15:59:46.280Z,9.80
2018-10-11T16:02:13.984Z,10.00
2018-10-11T16:04:42.057Z,10.48
2018-10-11T16:07:09.826Z,10.40
2018-10-11T16:09:37.355Z,10.80
2018-10-11T16:12:05.173Z,10.60
2018-10-11T16:14:32.887Z,10.50
2018-10-11T16:17:00.364Z,10.10
2018-10-11T16:19:28.440Z,10.30
2018-10-11T16:21:55.917Z,10.30
2018-10-11T16:24:23.665Z,10.32
2018-10-11T16:26:51.221Z,11.10
2018-10-11T16:29:18.968Z,11.30
2018-10-11T16:31:47.093Z,10.63
2018-10-11T16:34:14.821Z,10.75
2018-10-11T16:36:42.588Z,10.83
2018-10-11T16:39:10.916Z,11.68
2018-10-11T16:41:38.355Z,11.00
2018-10-11T16:44:06.068Z,10.78
2018-10-11T16:46:34.088Z,10.90
2018-10-11T16:49:01.928Z,10.97
2018-10-11T16:51:29.379Z,10.65
2018-10-11T16:53:56.857Z,11.10
2018-10-11T16:56:24.377Z,11.73
2018-10-11T16:58:52.749Z,11.10
2018-10-11T17:01:20.492Z,10.70
2018-10-11T17:03:48.322Z,11.80
2018-10-11T17:06:16.105Z,12.55
2018-10-11T17:08:44.290Z,11.70
2018-10-11T17:11:11.765Z,11.55
2018-10-11T17:13:39.595Z,11.65
2018-10-11T17:16:07.498Z,12.03
2018-10-11T17:18:34.924Z,11.00
2018-10-11T17:21:02.384Z,11.90
2018-10-11T17:23:30.437Z,10.80
2018-10-11T17:25:58.159Z,11.80
2018-10-11T17:28:25.969Z,12.73
2018-10-11T17:30:53.433Z,11.80
2018-10-11T17:33:20.969Z,12.00
2018-10-11T17:35:48.759Z,42.88
2018-10-11T17:38:16.510Z,12.35
2018-10-11T17:40:44.292Z,11.97
2018-10-11T17:43:11.776Z,11.97
2018-10-11T17:45:39.352Z,12.13
2018-10-11T17:48:06.800Z,11.60
2018-10-11T17:50:34.536Z,12.50
2018-10-11T17:53:02.063Z,11.93
2018-10-11T17:55:29.488Z,11.60
2018-10-11T17:57:57.265Z,11.73
2018-10-11T18:00:24.764Z,11.83
2018-10-11T18:02:52.277Z,11.80
2018-10-11T18:05:19.826Z,11.88
2018-10-11T18:07:47.641Z,11.97
2018-10-11T18:10:15.092Z,11.85
2018-10-11T18:12:42.973Z,11.60
2018-10-11T18:15:11.042Z,11.70
2018-10-11T18:17:38.583Z,12.58
2018-10-11T18:20:06.668Z,12.50
2018-10-11T18:22:34.536Z,12.60
2018-10-11T18:25:02.305Z,12.13
2018-10-11T18:27:29.737Z,12.35
2018-10-11T18:29:57.534Z,12.35
2018-10-11T18:32:25.256Z,12.80
2018-10-11T18:34:52.698Z,12.78
2018-10-11T18:37:20.550Z,11.90
2018-10-11T18:39:48.376Z,15.63
2018-10-11T18:42:16.149Z,29.12
2018-10-11T18:44:44.284Z,14.38
2018-10-11T18:47:12.084Z,12.80
2018-10-11T18:49:39.822Z,12.60
2018-10-11T18:52:07.673Z,12.90
2018-10-11T18:54:35.783Z,12.63
2018-10-11T18:57:03.369Z,12.40
2018-10-11T18:59:31.106Z,12.80
2018-10-11T19:01:58.877Z,12.65
2018-10-11T19:04:26.442Z,13.00
2018-10-11T19:06:54.199Z,12.50
2018-10-11T19:09:22.096Z,13.00
2018-10-11T19:11:49.557Z,12.93
2018-10-11T19:14:17.086Z,12.90
2018-10-11T19:16:44.682Z,13.30
2018-10-11T19:19:12.196Z,12.93
2018-10-11T19:21:40.060Z,12.45
2018-10-11T19:24:07.577Z,13.10
2018-10-11T19:26:35.068Z,13.40
2018-10-11T19:29:02.521Z,13.35
2018-10-11T19:31:30.033Z,13.50
2018-10-11T19:33:57.495Z,13.15
2018-10-11T19:36:24.963Z,12.80
2018-10-11T19:38:52.804Z,13.22
2018-10-11T19:41:20.254Z,13.18
2018-10-11T19:43:47.732Z,13.30
2018-10-11T19:46:15.269Z,13.55
2018-10-11T19:48:42.812Z,13.83
2018-10-11T19:51:10.270Z,14.00
2018-10-11T19:53:37.792Z,14.63
2018-10-11T19:56:05.328Z,14.13
2018-10-11T19:58:33.175Z,13.85
2018-10-11T20:01:01.252Z,14.45
2018-10-11T20:03:28.759Z,14.63
2018-10-11T20:05:56.271Z,14.43
2018-10-11T20:08:23.823Z,14.87
2018-10-11T20:10:51.325Z,14.70
2018-10-11T20:13:18.911Z,14.33
2018-10-11T20:15:46.705Z,14.23
2018-10-11T20:18:14.261Z,14.60
2018-10-11T20:20:42.089Z,14.78
2018-10-11T20:23:09.528Z,13.68
2018-10-11T20:25:37.297Z,13.78
2018-10-11T20:28:05.057Z,14.28
2018-10-11T20:30:32.614Z,14.65
2018-10-11T20:33:00.115Z,13.43
2018-10-11T20:35:27.824Z,13.83
2018-10-11T20:37:56.077Z,14.60
2018-10-11T20:40:23.660Z,14.73
2018-10-11T20:42:51.160Z,14.23
2018-10-11T20:45:18.685Z,14.10
2018-10-11T20:47:46.157Z,14.35
2018-10-11T20:50:13.628Z,14.60
2018-10-11T20:52:41.137Z,13.57
2018-10-11T20:55:09.201Z,14.25
2018-10-11T20:57:37.043Z,14.45
2018-10-11T21:00:04.612Z,14.00
2018-10-11T21:02:32.393Z,14.83
2018-10-11T21:05:00.463Z,14.63
2018-10-11T21:07:28.536Z,14.70
2018-10-11T21:09:56.025Z,14.90
2018-10-11T21:12:23.573Z,15.05
2018-10-11T21:14:51.453Z,15.40
2018-10-11T21:17:19.540Z,14.83
2018-10-11T21:19:47.062Z,14.33
2018-10-11T21:22:14.543Z,15.10
2018-10-11T21:24:42.592Z,14.70
2018-10-11T21:27:10.596Z,14.60
2018-10-11T21:29:38.727Z,13.17
2018-10-11T21:32:06.384Z,13.80
2018-10-11T21:34:33.878Z,14.05
2018-10-11T21:37:01.669Z,13.70
2018-10-11T21:39:29.485Z,13.70
2018-10-11T21:41:57.265Z,13.50
2018-10-11T21:44:25.316Z,13.10
2018-10-11T21:46:52.796Z,13.10
2018-10-11T21:49:20.506Z,13.93
2018-10-11T21:51:48.073Z,13.60
2018-10-11T21:54:15.873Z,13.62
2018-10-11T21:56:43.600Z,13.28
2018-10-11T21:59:11.101Z,13.20
2018-10-11T22:01:38.975Z,13.62
2018-10-11T22:04:06.785Z,13.70
2018-10-11T22:06:34.590Z,13.60
2018-10-11T22:09:02.200Z,12.57
2018-10-11T22:11:29.693Z,13.68
2018-10-11T22:13:57.249Z,13.55
2018-10-11T22:16:25.336Z,12.30
2018-10-11T22:18:52.865Z,13.03
2018-10-11T22:21:20.386Z,13.43
2018-10-11T22:23:47.860Z,12.83
2018-10-11T22:26:15.737Z,12.90
2018-10-11T22:28:43.547Z,13.70
2018-10-11T22:31:12.657Z,12.80
2018-10-11T22:33:41.035Z,13.00
2018-10-11T22:36:09.300Z,13.40
2018-10-11T22:38:36.812Z,18.65
2018-10-11T22:41:04.623Z,14.25
2018-10-11T22:43:32.380Z,14.15
2018-10-11T22:45:59.909Z,13.45
2018-10-11T22:48:27.400Z,14.28
2018-10-11T22:50:54.941Z,14.05
2018-10-11T22:53:22.481Z,13.83
2018-10-11T22:55:50.009Z,14.30
2018-10-11T22:58:17.530Z,13.70
2018-10-11T23:00:45.369Z,14.38
2018-10-11T23:03:12.834Z,13.80
2018-10-11T23:05:40.641Z,14.65
2018-10-11T23:08:08.101Z,13.70
2018-10-11T23:10:36.169Z,13.58
2018-10-11T23:13:03.604Z,13.40
2018-10-11T23:15:31.375Z,13.30
2018-10-11T23:17:59.471Z,14.40
2018-10-11T23:20:27.272Z,13.77
2018-10-11T23:22:55.718Z,14.20
2018-10-11T23:25:23.175Z,13.97
2018-10-11T23:27:50.970Z,13.68
2018-10-11T23:30:18.461Z,14.60
2018-10-11T23:32:46.253Z,14.30
2018-10-11T23:35:13.772Z,14.50
2018-10-11T23:37:41.684Z,14.20
2018-10-11T23:40:10.269Z,14.10
2018-10-11T23:42:37.913Z,14.65
2018-10-11T23:45:05.462Z,13.95
2018-10-11T23:47:33.256Z,13.90
2018-10-11T23:50:01.077Z,13.90
2018-10-11T23:52:28.961Z,14.40
2018-10-11T23:54:56.737Z,14.63
2018-10-11T23:57:24.512Z,14.45
2018-10-11T23:59:52.588Z,14.30
